Time;durP1;ratioP1;P1;durP2;ratioP2;P2;SDS_P1;SDS_P2;PMS_P1;PMS_P2;Temp;Humidity;BMP_temperature;BMP_pressure;BME280_temperature;BME280_humidity;BME280_pressure;Samples;Min_cycle;Max_cycle;Signal;HPM_P1;HPM_P2
2023/05/01 04:22:32;;;;;;;13.90;6.20;;;;;;;9.82;98.78;100011.81;5109925;27;20396;-68
2023/05/01 04:24:58;;;;;;;9.45;5.38;;;;;;;9.86;98.92;100013.97;5109991;28;20442;-68
2023/05/01 04:27:23;;;;;;;11.60;5.60;;;;;;;9.78;98.70;100011.34;5108183;28;20047;-68
2023/05/01 04:29:49;;;;;;;10.63;5.78;;;;;;;9.88;98.71;100024.41;5108493;28;20499;-69
2023/05/01 04:32:16;;;;;;;7.85;5.32;;;;;;;9.91;98.03;100016.94;5108683;28;20050;-67
2023/05/01 04:34:43;;;;;;;7.50;4.70;;;;;;;9.91;98.10;100016.94;5108447;28;20484;-67
2023/05/01 04:37:09;;;;;;;12.30;5.43;;;;;;;9.85;98.07;100006.97;5108058;28;20040;-67
2023/05/01 04:39:35;;;;;;;8.48;5.07;;;;;;;9.97;97.53;100026.84;5108327;28;20073;-67
2023/05/01 04:42:04;;;;;;;9.20;6.20;;;;;;;9.99;97.40;100024.03;5108210;28;20042;-67
2023/05/01 04:44:30;;;;;;;8.88;5.38;;;;;;;10.00;97.24;100026.50;5108179;28;20074;-67
2023/05/01 04:46:55;;;;;;;6.75;5.15;;;;;;;10.02;96.84;100032.47;5108204;27;20432;-68
2023/05/01 04:49:21;;;;;;;8.98;5.88;;;;;;;10.02;96.99;100021.84;5108092;28;20100;-67
2023/05/01 04:51:47;;;;;;;6.93;4.45;;;;;;;10.12;96.37;100018.16;5108110;28;20032;-67
2023/05/01 04:54:15;;;;;;;6.88;4.70;;;;;;;10.14;96.83;100016.94;5108078;28;20393;-67
2023/05/01 04:56:40;;;;;;;10.80;5.43;;;;;;;10.16;96.46;100016.75;5107826;28;20084;-67
2023/05/01 04:59:06;;;;;;;10.93;5.22;;;;;;;10.11;97.14;100022.63;5108818;28;20162;-67
2023/05/01 05:01:31;;;;;;;7.78;5.03;;;;;;;10.13;96.47;100022.47;5108020;28;20039;-67
2023/05/01 05:03:57;;;;;;;9.32;4.78;;;;;;;10.15;96.70;100025.75;5107890;28;20039;-67
2023/05/01 05:06:22;;;;;;;7.60;4.50;;;;;;;10.17;96.77;100024.59;5107744;28;20400;-67
2023/05/01 05:08:50;;;;;;;9.43;5.82;;;;;;;10.13;96.70;100030.44;5107541;28;20035;-67
2023/05/01 05:11:19;;;;;;;7.82;4.85;;;;;;;10.20;96.44;100031.41;5107696;28;20222;-67
2023/05/01 05:13:55;;;;;;;7.88;4.47;;;;;;;10.20;96.38;100021.56;5107675;28;20032;-67
2023/05/01 05:16:21;;;;;;;5.90;4.72;;;;;;;10.27;96.01;100021.72;5107531;28;20028;-68
2023/05/01 05:18:46;;;;;;;6.90;4.78;;;;;;;10.32;95.97;100030.84;5107267;28;20036;-67
2023/05/01 05:21:12;;;;;;;6.93;4.72;;;;;;;10.38;95.71;100026.66;5107377;28;20031;-67
2023/05/01 05:23:44;;;;;;;7.50;4.75;;;;;;;10.44;95.04;100025.94;5107611;28;20090;-67
2023/05/01 05:26:10;;;;;;;8.73;4.75;;;;;;;10.51;94.73;100034.88;5107294;28;20044;-67
2023/05/01 05:28:35;;;;;;;6.78;4.82;;;;;;;10.56;94.30;100027.19;5108360;28;20036;-67
2023/05/01 05:31:01;;;;;;;7.20;4.47;;;;;;;10.68;94.09;100027.56;5107356;28;20031;-68
2023/05/01 05:33:27;;;;;;;5.95;4.68;;;;;;;10.75;92.97;100015.19;5096353;28;20043;-68
2023/05/01 05:35:53;;;;;;;6.80;4.85;;;;;;;10.86;92.55;100025.41;5093635;28;20115;-67
2023/05/01 05:38:25;;;;;;;8.15;4.32;;;;;;;11.01;92.07;100028.09;5093318;28;20075;-68
2023/05/01 05:40:54;;;;;;;8.48;4.50;;;;;;;11.11;91.46;100027.88;5093351;28;20040;-66
2023/05/01 05:43:20;;;;;;;5.82;4.60;;;;;;;11.25;90.33;100029.72;5093610;28;20089;-67
2023/05/01 05:45:46;;;;;;;7.22;4.35;;;;;;;11.34;90.07;100025.09;5093658;28;20427;-67
2023/05/01 05:48:12;;;;;;;7.20;4.80;;;;;;;11.40;90.14;100024.38;5093202;28;20408;-66
2023/05/01 05:50:39;;;;;;;7.65;4.50;;;;;;;11.51;88.57;100025.75;5093323;28;20032;-67
2023/05/01 05:53:05;;;;;;;6.15;3.83;;;;;;;11.59;87.05;100023.81;5094662;28;20051;-67
2023/05/01 05:55:32;;;;;;;7.05;4.25;;;;;;;11.67;86.54;100023.75;5093221;28;20047;-69
2023/05/01 05:58:00;;;;;;;5.05;3.70;;;;;;;11.73;86.21;100026.66;5092976;28;20047;-67
2023/05/01 06:00:26;;;;;;;7.03;3.85;;;;;;;11.77;85.52;100025.28;5093161;28;20040;-67
2023/05/01 06:02:52;;;;;;;6.88;4.47;;;;;;;11.82;85.76;100028.25;5092042;28;20130;-67
2023/05/01 06:05:18;;;;;;;5.53;3.58;;;;;;;11.87;85.90;100029.34;5092334;28;20055;-67
2023/05/01 06:07:45;;;;;;;5.95;3.90;;;;;;;11.88;86.55;100031.00;5092597;28;20072;-62
2023/05/01 06:10:10;;;;;;;4.82;3.85;;;;;;;11.92;85.11;100018.94;5092825;28;20130;-60
2023/05/01 06:12:37;;;;;;;6.20;4.25;;;;;;;11.99;86.06;100032.34;5094297;28;20396;-61
2023/05/01 06:15:04;;;;;;;;;;;;;;;11.99;86.34;100035.03;5093118;28;20040;-60
2023/05/01 06:17:30;;;;;;;4.90;3.58;;;;;;;11.98;85.84;100036.03;5092604;28;20388;-61
2023/05/01 06:19:55;;;;;;;6.40;3.45;;;;;;;12.00;87.01;100030.50;5092891;28;20036;-62
2023/05/01 06:22:21;;;;;;;7.07;3.50;;;;;;;12.01;86.68;100032.19;5092796;28;20381;-62
2023/05/01 06:25:07;;;;;;;5.55;3.92;;;;;;;12.00;86.03;100035.84;5093633;28;20412;-61
2023/05/01 06:27:33;;;;;;;8.15;3.65;;;;;;;12.01;85.54;100040.19;5092498;28;20036;-62
2023/05/01 06:29:59;;;;;;;5.03;3.35;;;;;;;12.02;85.41;100037.34;5092648;28;20051;-60
2023/05/01 06:32:24;;;;;;;4.25;3.00;;;;;;;12.02;87.26;100039.19;5092539;28;20067;-57
2023/05/01 06:34:50;;;;;;;5.72;3.85;;;;;;;11.94;87.19;100043.63;5092568;28;20039;-55
2023/05/01 06:37:16;;;;;;;3.92;3.53;;;;;;;11.93;87.10;100038.44;5093572;28;20573;-56
2023/05/01 06:39:41;;;;;;;5.97;4.30;;;;;;;11.91;86.92;100043.97;5092424;28;20044;-57
2023/05/01 06:42:07;;;;;;;3.80;3.17;;;;;;;11.90;87.06;100042.31;5092402;28;20036;-61
2023/05/01 06:44:37;;;;;;;5.68;3.92;;;;;;;11.96;87.45;100046.09;5091472;28;20028;-61
2023/05/01 06:47:03;;;;;;;5.10;3.38;;;;;;;12.02;87.49;100049.84;5092174;28;20040;-60
2023/05/01 06:49:28;;;;;;;4.63;3.22;;;;;;;12.04;87.57;100051.31;5093476;28;20039;-62
2023/05/01 06:51:54;;;;;;;3.83;3.15;;;;;;;12.12;90.75;100061.88;5093518;28;20046;-62
2023/05/01 06:54:19;;;;;;;5.07;3.40;;;;;;;12.16;90.85;100049.00;5092182;28;20028;-61
2023/05/01 06:56:45;;;;;;;4.43;3.33;;;;;;;12.12;86.16;100059.19;5093388;28;20066;-61
2023/05/01 06:59:10;;;;;;;5.78;3.15;;;;;;;12.14;85.58;100062.53;5093275;28;20044;-61
2023/05/01 07:01:35;;;;;;;4.70;3.05;;;;;;;12.21;85.85;100065.28;5092102;28;20035;-61
2023/05/01 07:04:02;;;;;;;5.97;3.33;;;;;;;12.18;84.75;100060.31;5093229;28;20071;-60
2023/05/01 07:06:28;;;;;;;3.50;2.58;;;;;;;12.27;83.71;100063.69;5093296;28;20401;-61
2023/05/01 07:08:53;;;;;;;3.10;2.50;;;;;;;12.28;83.40;100062.69;5092877;28;20047;-61
2023/05/01 07:11:19;;;;;;;3.60;2.65;;;;;;;12.34;84.84;100065.44;5093083;28;20050;-62
2023/05/01 07:13:44;;;;;;;4.75;2.47;;;;;;;12.35;83.81;100071.59;5093095;28;20554;-60
2023/05/01 07:16:10;;;;;;;4.55;2.60;;;;;;;12.36;82.94;100073.25;5091849;28;20051;-64
2023/05/01 07:18:36;;;;;;;3.50;2.83;;;;;;;12.28;84.83;100066.19;5092633;28;20044;-61
2023/05/01 07:21:02;;;;;;;4.97;3.13;;;;;;;12.40;84.83;100070.00;5092904;28;20036;-61
2023/05/01 07:23:27;;;;;;;4.25;2.90;;;;;;;12.30;85.12;100068.66;5092910;28;20538;-61
2023/05/01 07:25:53;;;;;;;3.38;2.92;;;;;;;12.29;86.14;100067.00;5092749;28;20032;-62
2023/05/01 07:28:20;;;;;;;3.42;3.10;;;;;;;12.17;86.60;100059.47;5092481;28;20042;-61
2023/05/01 07:30:46;;;;;;;2.93;2.53;;;;;;;12.26;87.33;100062.88;5092776;28;20115;-61
2023/05/01 07:33:11;;;;;;;3.63;2.65;;;;;;;12.36;88.01;100057.22;5092693;28;20142;-62
2023/05/01 07:35:37;;;;;;;3.50;2.55;;;;;;;12.41;86.24;100060.16;5092317;28;20055;-63
2023/05/01 07:38:02;;;;;;;3.22;2.60;;;;;;;12.42;86.19;100062.63;5092283;28;20047;-62
2023/05/01 07:40:27;;;;;;;5.32;2.95;;;;;;;12.44;85.14;100065.94;5092707;28;20427;-62
2023/05/01 07:42:53;;;;;;;3.35;2.58;;;;;;;12.58;83.99;100066.88;5092607;28;20044;-61
2023/05/01 07:45:18;;;;;;;3.80;2.70;;;;;;;12.62;81.45;100057.47;5092458;28;20064;-63
2023/05/01 07:47:44;;;;;;;3.60;2.85;;;;;;;12.69;82.10;100062.88;5092147;28;20389;-61
2023/05/01 07:50:10;;;;;;;4.82;3.53;;;;;;;12.71;81.37;100053.69;5092456;28;20493;-62
2023/05/01 07:52:36;;;;;;;5.60;3.97;;;;;;;12.80;80.97;100051.69;5092269;28;20038;-53
2023/05/01 07:55:02;;;;;;;4.57;3.33;;;;;;;12.61;81.07;100060.34;5092252;28;20126;-62
2023/05/01 07:57:28;;;;;;;3.78;2.97;;;;;;;12.47;82.83;100060.22;5092050;28;20071;-63
2023/05/01 07:59:57;;;;;;;4.75;2.83;;;;;;;12.56;83.39;100055.56;5092409;28;20043;-62
2023/05/01 08:02:23;;;;;;;4.88;3.33;;;;;;;12.61;83.61;100055.84;5092272;28;20028;-61
2023/05/01 08:04:48;;;;;;;5.68;3.20;;;;;;;12.61;83.89;100057.69;5092335;28;20088;-62
2023/05/01 08:07:14;;;;;;;5.40;3.08;;;;;;;12.75;83.54;100060.28;5091772;28;20043;-62
2023/05/01 08:09:39;;;;;;;4.55;2.80;;;;;;;12.82;83.86;100065.69;5092322;28;20080;-63
2023/05/01 08:12:05;;;;;;;4.43;3.47;;;;;;;12.92;83.22;100068.88;5092093;28;20051;-62
2023/05/01 08:14:30;;;;;;;5.90;3.50;;;;;;;13.05;84.18;100073.50;5092118;28;20032;-64
2023/05/01 08:16:56;;;;;;;4.05;3.25;;;;;;;13.22;84.40;100069.53;5091861;28;20032;-63
2023/05/01 08:19:23;;;;;;;4.50;3.45;;;;;;;13.39;83.12;100069.25;5091976;28;20051;-63
2023/05/01 08:21:48;;;;;;;6.13;3.38;;;;;;;13.39;82.14;100070.06;5091959;28;20056;-64
2023/05/01 08:24:14;;;;;;;5.18;3.55;;;;;;;13.31;82.70;100070.22;5092061;28;20505;-63
2023/05/01 08:26:39;;;;;;;5.72;3.63;;;;;;;13.49;82.84;100075.88;5091886;28;20040;-63
2023/05/01 08:29:05;;;;;;;4.90;3.33;;;;;;;13.33;82.09;100059.34;5091720;28;20032;-64
2023/05/01 08:31:30;;;;;;;4.28;3.25;;;;;;;13.63;84.51;100071.47;5091874;28;20051;-64
2023/05/01 08:33:56;;;;;;;4.32;3.65;;;;;;;13.72;81.83;100077.47;5091947;28;20093;-64
2023/05/01 08:36:21;;;;;;;4.05;3.55;;;;;;;13.74;82.35;100070.06;5091807;28;20104;-64
2023/05/01 08:38:47;;;;;;;5.93;3.20;;;;;;;13.84;82.12;100070.53;5091584;28;20032;-64
2023/05/01 08:41:20;;;;;;;4.68;3.33;;;;;;;13.98;81.32;100068.75;5091899;28;20042;-63
2023/05/01 08:43:45;;;;;;;3.80;3.20;;;;;;;14.09;83.90;100068.19;5091988;28;20446;-50
2023/05/01 08:46:14;;;;;;;5.18;3.30;;;;;;;14.16;81.63;100065.53;5091728;28;20082;-64
2023/05/01 08:48:41;;;;;;;4.18;3.40;;;;;;;14.26;81.49;100065.97;5091589;28;20032;-50
2023/05/01 08:51:09;;;;;;;10.43;3.85;;;;;;;14.31;81.85;100067.00;5091614;28;20048;-56
2023/05/01 08:53:36;;;;;;;5.88;3.63;;;;;;;14.43;81.23;100061.06;5091782;28;20062;-62
2023/05/01 08:56:05;;;;;;;4.45;3.13;;;;;;;14.47;82.51;100062.34;5091792;28;20028;-62
2023/05/01 08:58:34;;;;;;;4.00;3.30;;;;;;;14.53;81.24;100054.31;5091359;28;20048;-62
2023/05/01 09:01:01;;;;;;;6.00;3.70;;;;;;;14.53;81.05;100050.81;5091934;28;20035;-57
2023/05/01 09:03:30;;;;;;;4.47;3.53;;;;;;;14.51;80.40;100051.00;5091422;28;20064;-63
2023/05/01 09:05:56;;;;;;;4.72;3.50;;;;;;;14.71;79.96;100053.72;5091547;28;20044;-62
2023/05/01 09:08:21;;;;;;;4.85;3.30;;;;;;;14.92;79.15;100050.00;5093479;28;20063;-62
2023/05/01 09:10:47;;;;;;;4.13;3.13;;;;;;;15.19;80.04;100049.00;5060646;28;20132;-62
2023/05/01 09:13:13;;;;;;;5.40;3.00;;;;;;;15.39;76.48;100050.81;5077179;28;20040;-63
2023/05/01 09:15:38;;;;;;;4.85;3.47;;;;;;;15.24;73.88;100047.53;5095221;28;20499;-61
2023/05/01 09:18:04;;;;;;;3.38;2.85;;;;;;;15.35;73.59;100046.91;5095040;28;20040;-62
2023/05/01 09:20:30;;;;;;;4.15;3.17;;;;;;;15.42;74.33;100051.22;5095069;28;20123;-63
2023/05/01 09:22:56;;;;;;;3.65;2.92;;;;;;;15.53;76.04;100051.63;5095268;28;20044;-62
2023/05/01 09:25:22;;;;;;;4.95;3.65;;;;;;;15.33;75.42;100048.97;5095108;28;20045;-63
2023/05/01 09:27:47;;;;;;;4.40;3.67;;;;;;;15.38;75.15;100054.53;5094823;28;20032;-63
2023/05/01 09:30:36;;;;;;;4.15;2.83;;;;;;;15.63;76.20;100054.72;5095318;28;20289;-63
2023/05/01 09:33:05;;;;;;;3.95;3.17;;;;;;;15.84;77.32;100056.28;5095068;28;20036;-63
2023/05/01 09:35:31;;;;;;;5.50;3.03;;;;;;;16.02;76.49;100059.94;5094723;28;20086;-62
2023/05/01 09:37:57;;;;;;;3.80;3.20;;;;;;;16.10;78.23;100058.03;5094661;28;20055;-61
2023/05/01 09:40:26;;;;;;;3.40;2.58;;;;;;;16.01;75.99;100060.97;5094690;28;20286;-62
2023/05/01 09:42:54;;;;;;;5.22;2.55;;;;;;;16.17;75.01;100062.38;5094738;28;20043;-62
2023/05/01 09:45:22;;;;;;;2.60;2.17;;;;;;;16.38;77.18;100066.59;5094821;28;20035;-62
2023/05/01 09:47:48;;;;;;;4.13;2.95;;;;;;;16.32;74.48;100066.63;5094414;28;20400;-62
2023/05/01 09:50:31;;;;;;;2.97;2.60;;;;;;;16.23;72.80;100069.56;5094806;28;20036;-63
2023/05/01 09:52:59;;;;;;;4.00;2.67;;;;;;;16.28;74.88;100067.06;5094695;28;20115;-62
2023/05/01 09:55:25;;;;;;;3.35;2.50;;;;;;;16.29;72.55;100068.69;5094432;28;20078;-63
2023/05/01 09:57:50;;;;;;;3.22;2.72;;;;;;;16.31;72.56;100071.19;5094233;28;20496;-63
2023/05/01 10:00:17;;;;;;;3.65;3.00;;;;;;;16.34;73.86;100065.38;5094360;28;20046;-62
2023/05/01 10:02:45;;;;;;;4.68;3.42;;;;;;;16.51;72.52;100065.72;5094393;28;20028;-63
2023/05/01 10:05:11;;;;;;;3.92;2.88;;;;;;;16.31;74.46;100076.56;5092908;28;20032;-63
2023/05/01 10:07:38;;;;;;;3.58;2.80;;;;;;;16.37;68.88;100064.13;5094065;28;20035;-63
2023/05/01 10:10:20;;;;;;;4.63;2.92;;;;;;;16.08;70.37;100066.31;5094494;28;20040;-63
2023/05/01 10:12:47;;;;;;;3.00;2.22;;;;;;;16.22;71.12;100070.59;5094244;28;20040;-62
2023/05/01 10:15:13;;;;;;;3.47;2.50;;;;;;;16.63;67.67;100063.16;5094115;28;20034;-63
2023/05/01 10:17:40;;;;;;;3.03;2.72;;;;;;;16.81;67.07;100066.75;5093664;28;20111;-63
2023/05/01 10:20:06;;;;;;;3.28;2.83;;;;;;;16.87;66.54;100064.25;5093883;28;20051;-63
2023/05/01 10:22:32;;;;;;;3.53;2.80;;;;;;;17.21;64.22;100061.03;5094110;28;20032;-63
2023/05/01 10:24:59;;;;;;;3.35;2.72;;;;;;;17.22;64.32;100061.91;5093934;28;20036;-63
2023/05/01 10:27:25;;;;;;;3.33;2.43;;;;;;;17.82;65.72;100064.81;5093617;28;20044;-63
2023/05/01 10:29:53;;;;;;;3.78;3.00;;;;;;;18.30;60.66;100066.72;5093960;28;20032;-63
2023/05/01 10:32:19;;;;;;;3.75;2.83;;;;;;;18.93;65.08;100052.72;5093602;28;20036;-62
2023/05/01 10:34:56;;;;;;;4.28;3.03;;;;;;;19.05;61.95;100056.28;5093721;28;20036;-62
2023/05/01 10:37:28;;;;;;;3.75;2.92;;;;;;;18.78;58.93;100052.34;5093592;28;20466;-63
2023/05/01 10:39:53;;;;;;;3.70;3.05;;;;;;;18.64;61.38;100057.91;5093586;28;20039;-62
2023/05/01 10:42:19;;;;;;;3.10;2.80;;;;;;;18.60;60.81;100059.44;5093626;28;20032;-62
2023/05/01 10:44:46;;;;;;;3.05;2.63;;;;;;;18.29;60.64;100054.28;5093520;28;20115;-62
2023/05/01 10:47:26;;;;;;;;;;;;;;;18.64;62.00;100055.22;5093564;28;20040;-62
2023/05/01 10:50:08;;;;;;;2.90;2.60;;;;;;;18.95;60.40;100043.34;5093494;28;19966;-62
2023/05/01 10:53:10;;;;;;;3.60;2.72;;;;;;;19.13;60.72;100047.81;5093370;28;20044;-62
2023/05/01 10:55:44;;;;;;;3.03;2.72;;;;;;;19.54;59.44;100043.34;5093220;28;20032;-62
2023/05/01 10:58:10;;;;;;;2.90;2.50;;;;;;;19.24;59.05;100047.00;5091847;28;20036;-62
2023/05/01 11:00:36;;;;;;;3.20;2.43;;;;;;;18.88;58.29;100039.13;5093383;28;20622;-62
2023/05/01 11:03:20;;;;;;;3.33;2.90;;;;;;;18.96;61.10;100031.47;5093198;28;20069;-63
2023/05/01 11:06:03;;;;;;;3.03;2.17;;;;;;;18.91;60.12;100035.97;5093181;28;20400;-63
2023/05/01 11:08:33;;;;;;;3.65;2.72;;;;;;;18.86;59.45;100033.13;5092886;28;20462;-63
2023/05/01 11:11:21;;;;;;;3.35;2.90;;;;;;;18.77;62.54;100037.22;5092985;28;20028;-63
2023/05/01 11:14:09;;;;;;;3.13;2.60;;;;;;;18.41;61.16;100038.97;5093023;28;20032;-63
2023/05/01 11:16:38;;;;;;;4.00;2.42;;;;;;;18.31;60.02;100031.41;5092639;28;20036;-63
2023/05/01 11:19:04;;;;;;;2.50;2.10;;;;;;;18.53;59.90;100036.31;5092688;28;20078;-63
2023/05/01 11:21:32;;;;;;;2.35;2.10;;;;;;;18.57;60.43;100038.31;5092745;28;20051;-63
2023/05/01 11:24:08;;;;;;;2.45;2.20;;;;;;;18.75;61.07;100017.75;5092888;28;20435;-63
2023/05/01 11:26:41;;;;;;;4.43;2.78;;;;;;;19.02;61.09;100015.41;5092704;28;20145;-63
2023/05/01 11:29:11;;;;;;;3.88;2.55;;;;;;;19.17;60.64;100016.63;5092757;28;20066;-63
2023/05/01 11:31:37;;;;;;;3.92;2.50;;;;;;;19.23;60.35;100018.38;5092140;28;20050;-63
2023/05/01 11:34:05;;;;;;;3.03;2.63;;;;;;;19.27;59.95;100028.69;5092694;28;20052;-63
2023/05/01 11:36:50;;;;;;;3.72;2.67;;;;;;;19.29;62.54;100018.47;5092575;28;20040;-63
2023/05/01 11:39:16;;;;;;;2.63;2.08;;;;;;;19.59;60.01;100015.66;5091207;28;20042;-63
2023/05/01 11:41:42;;;;;;;3.67;2.60;;;;;;;19.14;59.24;100018.94;5092753;28;20145;-64
2023/05/01 11:44:10;;;;;;;3.47;2.60;;;;;;;19.38;60.92;100017.06;5092493;28;20107;-65
2023/05/01 11:46:36;;;;;;;3.33;2.33;;;;;;;19.29;62.35;100010.38;5092363;28;20123;-63
2023/05/01 11:49:02;;;;;;;4.45;2.40;;;;;;;19.04;58.40;100008.75;5092209;28;20067;-63
2023/05/01 11:51:28;;;;;;;2.90;2.30;;;;;;;19.28;59.45;100006.03;5092083;28;20032;-63
2023/05/01 11:54:00;;;;;;;3.22;2.38;;;;;;;19.62;57.17;100002.47;5092564;28;20031;-63
2023/05/01 11:56:27;;;;;;;2.67;2.40;;;;;;;20.11;54.76;99994.00;5092249;28;20040;-63
2023/05/01 11:58:54;;;;;;;3.08;2.30;;;;;;;20.14;54.68;100004.31;5091996;28;20028;-63
2023/05/01 12:01:19;;;;;;;2.92;2.30;;;;;;;20.26;54.37;100003.19;5092228;28;20032;-63
2023/05/01 12:03:45;;;;;;;2.10;1.90;;;;;;;20.16;53.48;100003.03;5092195;28;20043;-63
2023/05/01 12:06:12;;;;;;;2.65;2.08;;;;;;;20.03;54.34;99997.91;5092155;28;20111;-63
2023/05/01 12:08:42;;;;;;;3.30;2.88;;;;;;;19.83;54.97;99992.94;5092009;28;20039;-63
2023/05/01 12:11:07;;;;;;;2.83;2.55;;;;;;;19.69;55.62;99997.78;5074217;28;20036;-63
2023/05/01 12:13:34;;;;;;;2.75;2.42;;;;;;;19.48;58.40;100003.78;5092187;28;20036;-63
2023/05/01 12:16:00;;;;;;;4.50;2.70;;;;;;;19.38;56.33;99998.97;5091878;28;20036;-63
2023/05/01 12:18:25;;;;;;;2.92;2.60;;;;;;;19.28;56.44;99993.34;5091786;28;20541;-63
2023/05/01 12:20:53;;;;;;;3.05;2.65;;;;;;;19.18;57.78;99996.66;5092341;28;20122;-63
2023/05/01 12:23:33;;;;;;;3.30;2.90;;;;;;;19.06;57.48;99997.72;5091885;28;20032;-63
2023/05/01 12:26:02;;;;;;;2.92;2.50;;;;;;;19.00;58.94;99993.25;5091917;28;20047;-63
2023/05/01 12:28:28;;;;;;;3.53;2.47;;;;;;;18.88;61.16;99999.47;5091740;28;20102;-63
2023/05/01 12:31:00;;;;;;;3.75;2.78;;;;;;;19.09;57.90;100006.16;5091878;28;20035;-63
2023/05/01 12:33:26;;;;;;;4.45;3.10;;;;;;;18.86;59.65;100003.44;5091842;28;20032;-63
2023/05/01 12:35:51;;;;;;;3.03;2.58;;;;;;;18.87;58.54;100000.50;5091684;28;20040;-63
2023/05/01 12:38:19;;;;;;;4.35;3.22;;;;;;;18.91;57.42;99996.31;5091619;28;20117;-52
2023/05/01 12:40:53;;;;;;;3.47;3.03;;;;;;;18.65;60.98;99988.63;5091725;28;20489;-58
2023/05/01 12:43:30;;;;;;;3.67;3.00;;;;;;;18.72;59.47;99989.38;5094093;28;20129;-63
2023/05/01 12:45:56;;;;;;;3.35;2.97;;;;;;;18.35;60.36;100002.13;5095788;28;20042;-63
2023/05/01 12:48:22;;;;;;;3.67;3.08;;;;;;;18.31;63.72;99990.97;5095574;28;20032;-63
2023/05/01 12:50:53;;;;;;;4.72;3.47;;;;;;;18.27;62.95;99994.38;5095751;28;20122;-63
2023/05/01 12:53:21;;;;;;;4.22;3.22;;;;;;;18.18;62.26;99989.28;5095766;28;20102;-63
2023/05/01 12:55:48;;;;;;;4.30;3.55;;;;;;;18.06;64.37;99993.00;5095654;28;20023;-63
2023/05/01 12:58:14;;;;;;;3.60;3.15;;;;;;;17.96;66.67;99992.72;5095208;28;20036;-63
2023/05/01 13:00:50;;;;;;;4.30;3.10;;;;;;;17.95;66.15;99993.78;5095461;28;20031;-63
2023/05/01 13:03:22;;;;;;;4.50;3.15;;;;;;;17.97;63.24;99989.81;5095657;28;20046;-63
2023/05/01 13:05:53;;;;;;;4.15;3.38;;;;;;;17.84;64.28;99992.66;5095456;28;20107;-62
2023/05/01 13:08:36;;;;;;;5.35;3.83;;;;;;;17.51;64.58;100001.13;5095137;28;20127;-63
2023/05/01 13:11:11;;;;;;;3.92;3.33;;;;;;;17.67;64.29;99991.59;5095463;28;20036;-63
2023/05/01 13:13:37;;;;;;;4.43;3.83;;;;;;;17.79;64.01;99996.03;5095403;28;20067;-61
2023/05/01 13:16:11;;;;;;;4.35;3.45;;;;;;;17.89;63.59;99990.94;5095218;28;20063;-62
2023/05/01 13:18:46;;;;;;;4.80;3.42;;;;;;;17.63;64.03;99983.16;5094981;28;20036;-63
2023/05/01 13:21:14;;;;;;;4.20;3.60;;;;;;;17.78;63.50;99990.88;5095029;28;20051;-62
2023/05/01 13:23:41;;;;;;;4.13;3.30;;;;;;;18.14;64.74;99985.44;5094015;28;20051;-63
2023/05/01 13:26:08;;;;;;;4.40;3.17;;;;;;;18.60;60.84;99983.91;5095124;28;20032;-63
2023/05/01 13:28:37;;;;;;;4.10;3.67;;;;;;;19.25;57.57;99978.44;5094804;28;20065;-62
2023/05/01 13:31:12;;;;;;;4.25;3.80;;;;;;;19.88;56.39;99971.38;5093892;28;20044;-63
2023/05/01 13:33:42;;;;;;;5.07;3.13;;;;;;;20.10;55.54;99971.56;5094793;28;20035;-63
2023/05/01 13:36:13;;;;;;;3.85;2.95;;;;;;;20.07;55.42;99969.31;5094798;28;20036;-63
2023/05/01 13:38:46;;;;;;;4.20;3.40;;;;;;;19.85;56.19;99966.47;5094565;28;20489;-63
2023/05/01 13:41:18;;;;;;;4.57;3.13;;;;;;;19.85;54.08;99965.66;5094910;28;20036;-64
2023/05/01 13:43:44;;;;;;;3.83;3.22;;;;;;;19.79;53.73;99965.56;5094727;28;20114;-64
2023/05/01 13:46:12;;;;;;;4.03;3.42;;;;;;;20.21;52.84;99965.28;5094522;28;20031;-64
2023/05/01 13:48:39;;;;;;;3.28;2.88;;;;;;;20.30;56.86;99954.88;5094351;28;20036;-63
2023/05/01 13:51:05;;;;;;;3.95;3.47;;;;;;;19.89;54.47;99961.44;5094528;28;20496;-64
2023/05/01 13:53:31;;;;;;;3.75;3.08;;;;;;;19.87;55.41;99961.66;5094018;28;20039;-63
2023/05/01 13:55:56;;;;;;;3.83;3.28;;;;;;;20.25;53.94;99963.69;5094344;28;20520;-63
2023/05/01 13:58:22;;;;;;;3.92;3.33;;;;;;;20.02;55.33;99964.66;5094210;28;20048;-57
2023/05/01 14:00:48;;;;;;;4.72;3.10;;;;;;;20.11;53.65;99964.25;5094420;28;20028;-58
2023/05/01 14:03:14;;;;;;;3.25;2.88;;;;;;;20.19;55.06;99961.16;5094367;28;20032;-58
2023/05/01 14:05:41;;;;;;;3.67;2.97;;;;;;;20.16;52.36;99962.47;5094314;28;20418;-56
2023/05/01 14:08:07;;;;;;;3.93;3.07;;;;;;;20.00;54.49;99960.53;5094089;28;20036;-56
2023/05/01 14:10:33;;;;;;;3.45;3.08;;;;;;;20.08;56.31;99960.13;5094188;28;20035;-56
2023/05/01 14:12:59;;;;;;;3.50;2.92;;;;;;;19.96;54.12;99957.50;5094272;28;20032;-57
2023/05/01 14:15:24;;;;;;;3.67;3.20;;;;;;;20.05;54.05;99949.81;5094076;28;20062;-57
2023/05/01 14:17:51;;;;;;;3.25;2.63;;;;;;;20.25;53.21;99947.47;5093992;28;20081;-58
2023/05/01 14:20:16;;;;;;;3.38;2.95;;;;;;;20.11;54.64;99945.34;5094151;28;20094;-56
2023/05/01 14:22:47;;;;;;;6.63;3.40;;;;;;;20.02;53.85;99950.31;5094100;28;20030;-60
2023/05/01 14:25:23;;;;;;;4.47;3.58;;;;;;;20.07;55.43;99950.38;5094113;28;20481;-62
2023/05/01 14:27:49;;;;;;;3.45;3.10;;;;;;;20.03;53.89;99949.25;5093602;28;20036;-62
2023/05/01 14:30:37;;;;;;;3.80;3.25;;;;;;;19.86;55.48;99957.31;5093935;28;20028;-62
2023/05/01 14:33:04;;;;;;;5.63;3.88;;;;;;;19.72;54.56;99961.34;5093904;28;20044;-62
2023/05/01 14:35:30;;;;;;;3.85;3.25;;;;;;;19.65;55.87;99963.38;5093794;28;20087;-61
2023/05/01 14:38:05;;;;;;;4.63;3.30;;;;;;;19.49;55.75;99976.50;5093459;28;20071;-61
2023/05/01 14:40:33;;;;;;;3.25;2.95;;;;;;;19.51;56.74;99970.91;5093775;28;20405;-62
2023/05/01 14:42:59;;;;;;;3.10;2.70;;;;;;;19.39;55.55;99970.09;5093681;28;20056;-62
2023/05/01 14:45:24;;;;;;;3.78;2.85;;;;;;;19.30;55.78;99966.09;5093322;28;20097;-62
2023/05/01 14:47:49;;;;;;;3.33;3.00;;;;;;;19.00;59.28;99967.06;5093295;28;20040;-61
2023/05/01 14:50:19;;;;;;;3.78;3.17;;;;;;;18.73;59.29;99976.69;5093554;28;20104;-53
2023/05/01 14:52:45;;;;;;;3.90;2.33;;;;;;;18.13;71.38;100005.34;5093381;28;20039;-61
2023/05/01 14:55:11;;;;;;;2.80;1.88;;;;;;;17.44;72.97;100005.75;5093555;28;20397;-53
2023/05/01 14:57:37;;;;;;;2.80;1.80;;;;;;;16.74;77.44;100006.81;5093059;28;20032;-48
2023/05/01 15:00:05;;;;;;;1.73;1.30;;;;;;;15.86;82.93;100017.47;5093381;28;20043;-55
2023/05/01 15:02:31;;;;;;;1.25;0.90;;;;;;;15.24;80.89;99994.69;5093265;28;20035;-56
2023/05/01 15:04:56;;;;;;;1.80;1.10;;;;;;;15.52;82.54;99986.38;5092521;28;20032;-57
2023/05/01 15:07:22;;;;;;;1.02;0.95;;;;;;;15.32;82.60;99978.38;5092781;28;20055;-52
2023/05/01 15:09:47;;;;;;;1.80;1.25;;;;;;;15.08;84.92;99960.28;5093258;28;20119;-55
2023/05/01 15:12:13;;;;;;;1.70;1.40;;;;;;;14.98;87.31;99962.53;5093043;28;20028;-61
2023/05/01 15:14:38;;;;;;;1.55;1.20;;;;;;;14.50;84.83;99950.22;5093125;28;20032;-63
2023/05/01 15:17:03;;;;;;;3.28;2.10;;;;;;;14.97;91.05;99947.50;5092764;28;20515;-65
2023/05/01 15:19:29;;;;;;;2.25;1.70;;;;;;;14.86;94.44;99936.34;5091868;28;20047;-64
2023/05/01 15:21:54;;;;;;;2.40;1.45;;;;;;;14.89;99.09;99951.22;5093040;28;20042;-64
2023/05/01 15:24:21;;;;;;;2.25;1.67;;;;;;;15.19;100.00;99948.88;5093011;28;20047;-55
2023/05/01 15:26:47;;;;;;;1.20;1.10;;;;;;;15.37;98.25;99946.34;5093354;28;20407;-62
2023/05/01 15:29:13;;;;;;;1.67;1.35;;;;;;;15.57;89.52;99940.91;5094010;28;20068;-64
2023/05/01 15:31:38;;;;;;;1.05;0.95;;;;;;;15.90;92.21;99948.81;5096466;28;20047;-64
2023/05/01 15:34:04;;;;;;;1.77;1.17;;;;;;;16.03;94.72;99950.63;5092714;28;20496;-64
2023/05/01 15:36:29;;;;;;;1.35;1.10;;;;;;;16.12;92.06;99956.56;5092588;28;20089;-62
2023/05/01 15:38:55;;;;;;;2.17;1.00;;;;;;;16.16;89.11;99960.47;5092393;28;20036;-64
2023/05/01 15:41:20;;;;;;;0.80;0.80;;;;;;;16.13;83.52;99959.03;5092539;28;20392;-63
2023/05/01 15:43:45;;;;;;;1.67;1.30;;;;;;;16.29;83.34;99958.50;5092590;28;20047;-62
2023/05/01 15:46:11;;;;;;;1.65;1.02;;;;;;;16.26;88.02;99966.19;5092465;28;20176;-62
2023/05/01 15:48:37;;;;;;;1.10;0.85;;;;;;;16.28;93.21;99969.47;5092223;28;20116;-62
2023/05/01 15:51:03;;;;;;;1.52;1.00;;;;;;;16.29;88.81;99981.88;5092364;28;20028;-63
2023/05/01 15:53:29;;;;;;;1.23;1.08;;;;;;;16.26;88.04;99988.53;5092417;28;20116;-62